createdAt,value
2023-01-26T00:01:17.623Z,-1.00
2023-01-26T00:03:47.960Z,-1.00
2023-01-26T00:06:16.744Z,-1.00
2023-01-26T04:24:15.651Z,100.00
2023-01-26T04:26:44.853Z,100.00
2023-01-26T04:29:16.441Z,100.00
2023-01-26T04:31:48.135Z,100.00
2023-01-26T04:34:18.858Z,100.00
2023-01-26T04:36:46.488Z,100.00
2023-01-26T04:39:16.135Z,100.00
2023-01-26T04:41:46.740Z,100.00
2023-01-26T04:44:16.286Z,100.00
2023-01-26T04:46:43.594Z,100.00
2023-01-26T04:49:14.070Z,100.00
2023-01-26T04:51:40.829Z,100.00
2023-01-26T04:54:08.841Z,100.00
2023-01-26T04:56:39.360Z,100.00
2023-01-26T04:59:06.582Z,100.00
2023-01-26T05:01:34.267Z,100.00
2023-01-26T05:04:03.127Z,100.00
2023-01-26T05:06:32.490Z,100.00
2023-01-26T05:08:59.787Z,100.00
2023-01-26T05:11:28.896Z,100.00
2023-01-26T05:14:10.421Z,100.00
2023-01-26T05:16:49.508Z,100.00
2023-01-26T05:19:45.889Z,100.00
2023-01-26T05:22:20.254Z,100.00
2023-01-26T05:25:11.687Z,100.00
2023-01-26T05:27:49.197Z,100.00
2023-01-26T05:30:16.809Z,100.00
2023-01-26T05:32:45.168Z,100.00
2023-01-26T05:35:12.864Z,100.00
2023-01-26T05:37:42.415Z,100.00
2023-01-26T05:40:11.241Z,100.00
2023-01-26T05:42:41.950Z,100.00
2023-01-26T05:45:23.163Z,100.00
2023-01-26T05:47:52.259Z,100.00
2023-01-26T05:50:20.734Z,100.00
2023-01-26T05:53:07.399Z,100.00
2023-01-26T05:55:36.138Z,100.00
2023-01-26T05:58:03.298Z,99.91
2023-01-26T06:00:31.391Z,99.72
2023-01-26T06:03:02.844Z,99.91
2023-01-26T06:05:33.097Z,99.79
2023-01-26T06:08:03.907Z,99.71
2023-01-26T06:10:39.727Z,99.74
2023-01-26T06:13:18.883Z,99.48
2023-01-26T06:15:52.003Z,99.79
2023-01-26T06:18:23.317Z,99.75
2023-01-26T06:20:53.654Z,99.91
2023-01-26T06:23:21.106Z,99.94
2023-01-26T06:25:48.090Z,99.97
2023-01-26T06:28:15.227Z,99.89
2023-01-26T06:30:42.151Z,100.00
2023-01-26T06:33:11.746Z,100.00
2023-01-26T06:35:40.171Z,100.00
2023-01-26T06:38:11.281Z,100.00
2023-01-26T06:40:38.495Z,100.00
2023-01-26T06:43:10.042Z,100.00
2023-01-26T06:45:37.416Z,100.00
2023-01-26T06:48:04.409Z,100.00
2023-01-26T06:50:32.862Z,100.00
2023-01-26T06:53:00.314Z,100.00
2023-01-26T06:55:53.690Z,100.00
2023-01-26T06:58:46.511Z,100.00
2023-01-26T07:01:26.049Z,100.00
2023-01-26T07:03:53.592Z,100.00
2023-01-26T07:06:20.486Z,100.00
2023-01-26T07:08:48.083Z,100.00
2023-01-26T07:11:16.683Z,100.00
2023-01-26T07:13:43.517Z,100.00
2023-01-26T07:16:12.124Z,100.00
2023-01-26T07:18:39.180Z,100.00
2023-01-26T07:21:09.168Z,100.00
2023-01-26T07:23:35.889Z,100.00
2023-01-26T07:26:02.755Z,100.00
2023-01-26T07:28:33.716Z,100.00
2023-01-26T07:31:00.736Z,100.00
2023-01-26T07:33:33.839Z,100.00
2023-01-26T07:36:00.984Z,100.00
2023-01-26T07:38:28.584Z,100.00
2023-01-26T07:40:55.500Z,100.00
2023-01-26T07:43:22.412Z,100.00
2023-01-26T07:45:52.970Z,100.00
2023-01-26T07:48:22.966Z,100.00
2023-01-26T07:50:50.015Z,100.00
2023-01-26T07:53:22.352Z,100.00
2023-01-26T07:55:50.344Z,100.00
2023-01-26T07:58:18.098Z,100.00
2023-01-26T08:00:47.683Z,100.00
2023-01-26T08:03:16.278Z,100.00
2023-01-26T08:05:43.156Z,100.00
2023-01-26T08:08:10.604Z,100.00
2023-01-26T08:10:38.291Z,100.00
2023-01-26T08:13:05.479Z,100.00
2023-01-26T08:15:33.789Z,100.00
2023-01-26T12:56:41.436Z,95.63
2023-01-26T12:59:39.750Z,94.30
2023-01-26T13:02:15.819Z,93.92
2023-01-26T13:04:44.230Z,93.62
2023-01-26T13:07:36.348Z,93.46
2023-01-26T13:10:08.263Z,93.63
2023-01-26T13:13:00.183Z,92.78
2023-01-26T13:15:31.767Z,92.52
2023-01-26T13:18:00.705Z,92.75
2023-01-26T13:20:29.377Z,92.83
2023-01-26T13:22:57.565Z,92.75
2023-01-26T13:25:31.650Z,92.01
2023-01-26T13:28:03.684Z,91.95
2023-01-26T13:30:46.298Z,92.44
2023-01-26T13:33:17.400Z,92.72
2023-01-26T13:35:45.450Z,92.96
2023-01-26T13:38:19.813Z,93.24
2023-01-26T13:40:50.645Z,93.55
2023-01-26T13:43:34.187Z,93.59
2023-01-26T13:46:12.624Z,93.73
2023-01-26T13:48:45.457Z,93.84
2023-01-26T13:51:18.755Z,93.64
2023-01-26T13:54:02.553Z,93.54
2023-01-26T13:56:33.721Z,93.86
2023-01-26T13:59:04.935Z,93.97
2023-01-26T14:01:33.285Z,94.10
2023-01-26T14:04:06.473Z,94.31
2023-01-26T14:06:36.205Z,94.98
2023-01-26T14:09:04.488Z,94.85
2023-01-26T14:11:33.195Z,95.00
2023-01-26T14:14:06.345Z,94.72
2023-01-26T14:16:35.755Z,94.72
2023-01-26T14:19:20.978Z,94.87
2023-01-26T14:21:56.948Z,94.71
2023-01-26T14:24:48.846Z,95.08
2023-01-26T14:27:39.288Z,95.23
2023-01-26T14:30:36.092Z,95.58
2023-01-26T14:33:13.833Z,76.29
2023-01-26T14:36:02.160Z,-1.00
2023-01-26T14:38:33.143Z,-1.00
2023-01-26T14:41:01.380Z,-1.00
2023-01-26T14:43:38.467Z,-1.00
2023-01-26T14:46:15.420Z,-1.00
2023-01-26T14:48:51.173Z,-1.00
2023-01-26T14:51:22.949Z,-1.00
2023-01-26T14:53:54.281Z,-1.00
2023-01-26T14:56:27.529Z,-1.00
2023-01-26T14:58:56.561Z,-1.00
2023-01-26T15:01:26.315Z,-1.00
2023-01-26T15:04:00.527Z,-1.00
2023-01-26T20:22:51.832Z,100.00
2023-01-26T20:25:19.476Z,100.00
2023-01-26T20:27:49.626Z,100.00
2023-01-26T20:30:19.139Z,100.00
2023-01-26T20:32:45.988Z,100.00
2023-01-26T20:35:13.247Z,100.00
2023-01-26T20:37:41.103Z,100.00
2023-01-26T20:40:08.855Z,100.00
2023-01-26T20:42:35.680Z,100.00
2023-01-26T20:45:02.503Z,100.00
2023-01-26T20:47:30.714Z,100.00
2023-01-26T20:50:01.644Z,100.00
2023-01-26T20:52:28.941Z,100.00
2023-01-26T20:54:56.205Z,100.00
2023-01-26T20:57:27.022Z,100.00
2023-01-26T20:59:54.798Z,100.00
2023-01-26T21:02:21.562Z,100.00
2023-01-26T21:04:48.623Z,100.00
2023-01-26T21:07:15.803Z,100.00
2023-01-26T21:09:46.049Z,100.00
2023-01-26T21:12:14.636Z,100.00
2023-01-26T21:14:41.676Z,100.00
2023-01-26T21:17:11.013Z,100.00
2023-01-26T21:19:39.245Z,100.00
2023-01-26T21:22:11.213Z,100.00
2023-01-26T21:24:38.225Z,100.00
2023-01-26T21:27:06.413Z,100.00
2023-01-26T21:29:33.210Z,100.00
2023-01-26T21:32:02.915Z,100.00
2023-01-26T21:34:30.991Z,100.00
2023-01-26T21:36:57.870Z,100.00
2023-01-26T21:39:25.543Z,100.00
2023-01-26T21:41:55.411Z,99.93
2023-01-26T21:44:32.355Z,99.89
2023-01-26T21:47:01.020Z,99.74
2023-01-26T21:49:28.742Z,99.70
2023-01-26T21:52:17.014Z,99.69
2023-01-26T21:54:44.300Z,99.74
2023-01-26T21:57:29.846Z,99.81
2023-01-26T21:59:57.317Z,99.75
2023-01-26T22:02:24.275Z,99.96
2023-01-26T22:04:52.239Z,100.00
2023-01-26T22:07:19.045Z,99.78
2023-01-26T22:09:46.840Z,99.72
2023-01-26T22:12:13.677Z,99.89
2023-01-26T22:14:40.801Z,99.74
2023-01-26T22:17:09.485Z,99.12
2023-01-26T22:19:36.917Z,99.59
2023-01-26T22:22:03.935Z,99.72
2023-01-26T22:24:31.563Z,99.76
2023-01-26T22:26:58.794Z,99.61
2023-01-26T22:29:25.673Z,99.47
2023-01-26T22:31:52.485Z,99.56
2023-01-26T22:34:19.416Z,99.84
2023-01-26T22:36:46.158Z,99.38
2023-01-26T22:39:12.880Z,99.18
2023-01-26T22:41:39.695Z,99.42
2023-01-26T22:44:06.570Z,99.52
2023-01-26T22:46:40.221Z,99.52
2023-01-26T22:49:06.931Z,99.44
